Terminal Aerodrome Forecast
Issued by NWS

Home | Current Version | Previous Version | Text Only | Print | Product List | Glossary On
Versions: 1 2 3 4 5 6 7 8 9 10 11 12 13 14 15 16 17 18 19 20 21 22 23 24 25 26 27
000
FTUS41 KOKX 300830 AAA
TAFTEB
TAF AMD
KTEB 300830Z 3009/3106 21010KT P6SM OVC120
      TEMPO 3011/3014 6SM -SN BKN030
     FM301400 24012G18KT P6SM SCT035 OVC060
     FM301800 27014G22KT P6SM BKN040
     FM310000 29010KT P6SM FEW040
     FM310300 28005KT P6SM SKC=

USA.gov is the U.S. government's official web portal to all federal, state and local government web resources and services.